Time,TemperatureF,DewpointF,PressureIn,WindDirection,WindDirectionDegrees,WindSpeedMPH,WindSpeedGustMPH,Humidity,HourlyPrecipIn,Conditions,Clouds,dailyrainin,SoftwareType,DateUTC
2013-04-19 00:01:00,50.7,46.9,30.15,NE,45,4.5,6.0,87,0.00,,,0.00,meteobridge,2013-04-19 04:01:00,
2013-04-19 00:02:00,50.9,47.1,30.15,NE,45,3.1,4.5,87,0.00,,,0.00,meteobridge,2013-04-19 04:02:00,
2013-04-19 00:06:00,50.9,47.1,30.14,North,0,3.8,5.4,87,0.00,,,0.00,meteobridge,2013-04-19 04:06:00,
2013-04-19 00:11:00,51.1,47.3,30.14,North,0,6.9,6.9,87,0.00,,,0.00,meteobridge,2013-04-19 04:11:00,
2013-04-19 00:17:00,51.3,47.8,30.14,North,0,5.4,5.4,88,0.00,,,0.00,meteobridge,2013-04-19 04:17:00,
2013-04-19 00:22:00,51.4,48.0,30.14,NE,45,5.4,10.7,88,0.00,,,0.00,meteobridge,2013-04-19 04:22:00,
2013-04-19 00:27:00,51.4,48.0,30.13,East,90,5.4,5.4,88,0.00,,,0.00,meteobridge,2013-04-19 04:27:00,
2013-04-19 00:32:00,51.6,48.6,30.13,East,90,3.1,3.1,89,0.00,,,0.00,meteobridge,2013-04-19 04:32:00,
2013-04-19 00:37:00,51.6,48.6,30.13,NE,45,4.5,4.5,89,0.00,,,0.00,meteobridge,2013-04-19 04:37:00,
2013-04-19 00:42:00,51.8,48.7,30.13,North,0,2.2,3.1,89,0.00,,,0.00,meteobridge,2013-04-19 04:42:00,
2013-04-19 00:48:00,51.8,48.7,30.13,South,180,5.4,5.4,89,0.00,,,0.00,meteobridge,2013-04-19 04:48:00,
2013-04-19 00:53:00,52.0,48.9,30.13,North,0,6.0,6.0,89,0.00,,,0.00,meteobridge,2013-04-19 04:53:00,
2013-04-19 00:58:00,52.2,49.3,30.13,NE,45,5.4,5.4,90,0.00,,,0.00,meteobridge,2013-04-19 04:58:00,
2013-04-19 01:03:00,52.2,49.3,30.12,North,0,4.5,4.5,90,0.00,,,0.00,meteobridge,2013-04-19 05:03:00,
2013-04-19 01:08:00,52.5,50.0,30.12,NE,45,4.5,4.5,91,0.00,,,0.00,meteobridge,2013-04-19 05:08:00,
2013-04-19 01:13:00,52.7,50.4,30.11,NE,45,2.2,5.4,92,0.00,,,0.00,meteobridge,2013-04-19 05:13:00,
2013-04-19 01:19:00,53.1,50.7,30.11,North,0,6.0,6.9,92,0.00,,,0.00,meteobridge,2013-04-19 05:19:00,
2013-04-19 01:24:00,53.2,50.9,30.11,North,0,6.9,6.9,92,0.00,,,0.00,meteobridge,2013-04-19 05:24:00,
2013-04-19 01:29:00,53.4,51.1,30.10,NE,45,6.0,6.9,92,0.00,,,0.00,meteobridge,2013-04-19 05:29:00,
2013-04-19 01:34:00,53.4,51.1,30.10,East,90,6.0,6.0,92,0.00,,,0.00,meteobridge,2013-04-19 05:34:00,
2013-04-19 01:39:00,53.6,51.1,30.10,NE,45,3.8,5.4,91,0.00,,,0.00,meteobridge,2013-04-19 05:39:00,
2013-04-19 01:44:00,53.6,51.3,30.09,NE,45,5.4,9.2,92,0.00,,,0.00,meteobridge,2013-04-19 05:44:00,
2013-04-19 01:50:00,53.6,51.3,30.09,East,90,6.9,6.9,92,0.00,,,0.00,meteobridge,2013-04-19 05:50:00,
2013-04-19 01:55:00,53.8,51.4,30.08,SW,225,6.0,6.9,92,0.00,,,0.00,meteobridge,2013-04-19 05:55:00,
2013-04-19 02:00:00,53.8,51.8,30.09,NE,45,3.8,7.6,93,0.00,,,0.00,meteobridge,2013-04-19 06:00:00,
2013-04-19 02:05:00,53.8,51.8,30.08,NE,45,3.8,3.8,93,0.00,,,0.00,meteobridge,2013-04-19 06:05:00,
2013-04-19 02:10:00,53.8,52.2,30.07,NE,45,4.5,7.6,94,0.00,,,0.00,meteobridge,2013-04-19 06:10:00,
2013-04-19 02:15:00,53.8,52.2,30.07,East,90,3.8,10.7,94,0.00,,,0.00,meteobridge,2013-04-19 06:15:00,
2013-04-19 02:21:00,54.0,52.5,30.07,West,270,1.6,3.1,95,0.00,,,0.00,meteobridge,2013-04-19 06:21:00,
2013-04-19 02:26:00,54.1,52.7,30.07,NE,45,5.4,5.4,95,0.00,,,0.00,meteobridge,2013-04-19 06:26:00,
2013-04-19 02:31:00,54.3,53.2,30.07,NE,45,4.5,6.0,96,0.00,,,0.00,meteobridge,2013-04-19 06:31:00,
2013-04-19 02:36:00,54.7,53.6,30.07,NE,45,6.9,6.9,96,0.00,,,0.00,meteobridge,2013-04-19 06:36:00,
2013-04-19 02:41:00,54.9,53.8,30.07,NE,45,5.4,6.0,96,0.00,,,0.00,meteobridge,2013-04-19 06:41:00,
2013-04-19 02:46:00,54.9,53.8,30.06,East,90,3.8,3.8,96,0.00,,,0.00,meteobridge,2013-04-19 06:46:00,
2013-04-19 02:52:00,55.2,54.1,30.06,North,0,6.0,6.0,96,0.00,,,0.00,meteobridge,2013-04-19 06:52:00,
2013-04-19 02:57:00,55.6,54.5,30.06,East,90,6.9,6.9,96,0.00,,,0.00,meteobridge,2013-04-19 06:57:00,
2013-04-19 03:02:00,55.8,54.7,30.06,NE,45,5.4,9.8,96,0.00,,,0.00,meteobridge,2013-04-19 07:02:00,
2013-04-19 03:07:00,55.8,54.7,30.06,NE,45,6.0,10.7,96,0.00,,,0.00,meteobridge,2013-04-19 07:07:00,
2013-04-19 03:12:00,55.9,54.9,30.06,NE,45,4.5,4.5,96,0.00,,,0.00,meteobridge,2013-04-19 07:12:00,
2013-04-19 03:17:00,56.1,55.0,30.06,NE,45,6.9,6.9,96,0.00,,,0.00,meteobridge,2013-04-19 07:17:00,
2013-04-19 03:22:00,56.3,55.2,30.06,ENE,68,4.5,8.3,96,0.00,,,0.00,meteobridge,2013-04-19 07:22:00,
2013-04-19 03:28:00,56.5,55.4,30.06,NE,45,6.9,6.9,96,0.00,,,0.00,meteobridge,2013-04-19 07:28:00,
2013-04-19 03:33:00,56.5,55.4,30.06,NE,45,8.3,8.3,96,0.00,,,0.00,meteobridge,2013-04-19 07:33:00,
2013-04-19 03:38:00,56.5,55.4,30.05,East,90,6.0,6.0,96,0.00,,,0.00,meteobridge,2013-04-19 07:38:00,
2013-04-19 03:43:00,56.5,55.4,30.05,NE,45,4.5,5.4,96,0.00,,,0.00,meteobridge,2013-04-19 07:43:00,
2013-04-19 03:48:00,56.7,55.6,30.05,SW,225,12.1,12.1,96,0.00,,,0.00,meteobridge,2013-04-19 07:48:00,
2013-04-19 03:53:00,56.8,55.8,30.04,East,90,4.5,7.6,96,0.00,,,0.00,meteobridge,2013-04-19 07:53:00,
2013-04-19 03:59:00,57.0,55.9,30.04,East,90,5.4,9.2,96,0.00,,,0.00,meteobridge,2013-04-19 07:59:00,
2013-04-19 04:04:00,57.2,55.8,30.04,East,90,9.8,9.8,95,0.00,,,0.00,meteobridge,2013-04-19 08:04:00,
2013-04-19 04:09:00,57.4,55.9,30.04,NE,45,3.8,7.6,95,0.00,,,0.00,meteobridge,2013-04-19 08:09:00,
2013-04-19 04:14:00,57.4,55.9,30.04,East,90,3.8,6.9,95,0.00,,,0.00,meteobridge,2013-04-19 08:14:00,
2013-04-19 04:19:00,57.6,56.1,30.04,ENE,68,6.0,7.6,95,0.00,,,0.00,meteobridge,2013-04-19 08:19:00,
2013-04-19 04:24:00,57.6,56.1,30.03,East,90,9.2,9.2,95,0.00,,,0.00,meteobridge,2013-04-19 08:24:00,
2013-04-19 04:30:00,57.6,56.1,30.03,NE,45,3.8,6.9,95,0.00,,,0.00,meteobridge,2013-04-19 08:30:00,
2013-04-19 04:35:00,57.6,56.1,30.03,East,90,6.0,6.9,95,0.00,,,0.00,meteobridge,2013-04-19 08:35:00,
2013-04-19 04:40:00,57.7,56.3,30.03,NE,45,5.4,6.0,95,0.00,,,0.00,meteobridge,2013-04-19 08:40:00,
2013-04-19 04:45:00,57.7,56.3,30.03,NE,45,5.4,7.6,95,0.00,,,0.00,meteobridge,2013-04-19 08:45:00,
2013-04-19 04:50:00,57.9,56.5,30.03,ENE,68,6.0,7.6,95,0.00,,,0.00,meteobridge,2013-04-19 08:50:00,
2013-04-19 04:55:00,57.9,56.5,30.03,NE,45,4.5,6.9,95,0.00,,,0.00,meteobridge,2013-04-19 08:55:00,
2013-04-19 05:01:00,57.7,56.3,30.03,East,90,5.4,5.4,95,0.00,,,0.00,meteobridge,2013-04-19 09:01:00,
2013-04-19 05:06:00,57.7,56.3,30.03,North,0,5.4,6.9,95,0.00,,,0.00,meteobridge,2013-04-19 09:06:00,
2013-04-19 05:11:00,57.6,56.1,30.03,NE,45,5.4,5.4,95,0.00,,,0.00,meteobridge,2013-04-19 09:11:00,
2013-04-19 05:16:00,57.4,55.9,30.02,East,90,7.6,9.2,95,0.00,,,0.00,meteobridge,2013-04-19 09:16:00,
2013-04-19 05:21:00,57.4,55.9,30.02,NE,45,5.4,6.9,95,0.00,,,0.00,meteobridge,2013-04-19 09:21:00,
2013-04-19 05:26:00,57.4,55.9,30.03,NE,45,4.5,5.4,95,0.00,,,0.00,meteobridge,2013-04-19 09:26:00,
2013-04-19 05:32:00,57.4,56.3,30.02,North,0,4.5,6.0,96,0.00,,,0.00,meteobridge,2013-04-19 09:32:00,
2013-04-19 05:37:00,57.4,56.3,30.02,NE,45,3.8,4.5,96,0.00,,,0.00,meteobridge,2013-04-19 09:37:00,
2013-04-19 05:42:00,57.6,56.5,30.02,NE,45,3.8,6.0,96,0.00,,,0.00,meteobridge,2013-04-19 09:42:00,
2013-04-19 05:47:00,57.6,56.5,30.02,NE,45,5.4,5.4,96,0.00,,,0.00,meteobridge,2013-04-19 09:47:00,
2013-04-19 05:52:00,57.6,56.7,30.02,East,90,3.8,4.5,97,0.00,,,0.00,meteobridge,2013-04-19 09:52:00,
2013-04-19 05:57:00,57.7,56.8,30.02,ENE,68,5.4,5.4,97,0.00,,,0.00,meteobridge,2013-04-19 09:57:00,
2013-04-19 06:03:00,57.7,56.8,30.02,ENE,68,5.4,5.4,97,0.00,,,0.00,meteobridge,2013-04-19 10:03:00,
2013-04-19 06:08:00,57.9,57.0,30.02,East,90,6.0,6.0,97,0.00,,,0.00,meteobridge,2013-04-19 10:08:00,
2013-04-19 06:13:00,58.1,57.2,30.03,East,90,5.4,6.0,97,0.00,,,0.00,meteobridge,2013-04-19 10:13:00,
2013-04-19 06:18:00,58.1,57.2,30.03,NE,45,6.0,6.0,97,0.00,,,0.00,meteobridge,2013-04-19 10:18:00,
2013-04-19 06:23:00,58.3,57.4,30.03,NE,45,3.8,7.6,97,0.00,,,0.00,meteobridge,2013-04-19 10:23:00,
2013-04-19 06:28:00,58.6,58.1,30.03,South,180,7.6,7.6,98,0.00,,,0.00,meteobridge,2013-04-19 10:28:00,
2013-04-19 06:34:00,59.0,58.1,30.03,SE,135,8.3,8.3,97,0.00,,,0.00,meteobridge,2013-04-19 10:34:00,
2013-04-19 06:39:00,59.4,58.5,30.03,NE,45,7.6,7.6,97,0.00,,,0.00,meteobridge,2013-04-19 10:39:00,
2013-04-19 06:44:00,59.5,58.6,30.03,SE,135,6.0,8.3,97,0.00,,,0.00,meteobridge,2013-04-19 10:44:00,
2013-04-19 06:49:00,59.7,59.2,30.03,NE,45,6.0,9.8,98,0.00,,,0.00,meteobridge,2013-04-19 10:49:00,
2013-04-19 06:54:00,60.1,59.2,30.02,NE,45,6.0,6.0,97,0.00,,,0.00,meteobridge,2013-04-19 10:54:00,
2013-04-19 06:59:00,60.3,59.4,30.02,North,0,6.9,7.6,97,0.00,,,0.00,meteobridge,2013-04-19 10:59:00,
2013-04-19 07:04:00,60.3,59.4,30.02,ENE,68,6.0,7.6,97,0.00,,,0.00,meteobridge,2013-04-19 11:04:00,
2013-04-19 07:10:00,60.4,59.5,30.02,East,90,6.0,6.0,97,0.00,,,0.00,meteobridge,2013-04-19 11:10:00,
2013-04-19 07:15:00,60.6,59.7,30.02,NE,45,8.3,8.3,97,0.00,,,0.00,meteobridge,2013-04-19 11:15:00,
2013-04-19 07:20:00,60.4,59.4,30.02,East,90,4.5,9.2,96,0.00,,,0.00,meteobridge,2013-04-19 11:20:00,
2013-04-19 07:25:00,60.8,59.4,30.02,SE,135,7.6,7.6,95,0.00,,,0.00,meteobridge,2013-04-19 11:25:00,
2013-04-19 07:30:00,61.0,59.5,30.02,NE,45,8.3,8.3,95,0.00,,,0.00,meteobridge,2013-04-19 11:30:00,
2013-04-19 07:35:00,61.0,59.5,30.01,NE,45,3.8,5.4,95,0.00,,,0.00,meteobridge,2013-04-19 11:35:00,
2013-04-19 07:40:00,61.3,59.9,30.01,NE,45,9.2,9.2,95,0.00,,,0.00,meteobridge,2013-04-19 11:40:00,
2013-04-19 07:46:00,61.7,60.3,30.01,SE,135,6.9,7.6,95,0.00,,,0.00,meteobridge,2013-04-19 11:46:00,
2013-04-19 07:51:00,61.9,60.1,30.00,North,0,9.2,9.2,94,0.00,,,0.00,meteobridge,2013-04-19 11:51:00,
2013-04-19 07:56:00,62.2,60.4,30.00,SE,135,7.6,7.6,94,0.00,,,0.00,meteobridge,2013-04-19 11:56:00,
2013-04-19 08:01:00,63.3,61.3,30.01,NNE,23,7.6,8.3,93,0.00,,,0.00,meteobridge,2013-04-19 12:01:00,
2013-04-19 08:06:00,63.5,61.2,30.01,ENE,68,7.6,11.4,92,0.00,,,0.00,meteobridge,2013-04-19 12:06:00,
2013-04-19 08:11:00,63.0,60.3,30.01,NE,45,8.3,8.3,91,0.00,,,0.00,meteobridge,2013-04-19 12:11:00,
2013-04-19 08:17:00,62.6,59.9,30.00,East,90,9.2,9.2,91,0.00,,,0.00,meteobridge,2013-04-19 12:17:00,
2013-04-19 08:22:00,62.4,60.1,30.00,North,0,7.6,7.6,92,0.00,,,0.00,meteobridge,2013-04-19 12:22:00,
2013-04-19 08:27:00,62.6,60.3,30.00,NE,45,7.6,9.2,92,0.00,,,0.00,meteobridge,2013-04-19 12:27:00,
2013-04-19 08:32:00,62.8,60.4,30.00,SE,135,5.4,10.7,92,0.00,,,0.00,meteobridge,2013-04-19 12:32:00,
2013-04-19 08:37:00,63.0,61.0,30.00,NE,45,4.5,4.5,93,0.00,,,0.00,meteobridge,2013-04-19 12:37:00,
2013-04-19 08:42:00,63.5,61.5,30.00,NE,45,6.0,6.0,93,0.00,,,0.00,meteobridge,2013-04-19 12:42:00,
2013-04-19 08:48:00,63.7,61.3,29.99,North,0,5.4,8.3,92,0.00,,,0.00,meteobridge,2013-04-19 12:48:00,
2013-04-19 08:53:00,63.7,61.0,30.00,NE,45,6.9,6.9,91,0.00,,,0.00,meteobridge,2013-04-19 12:53:00,
2013-04-19 08:58:00,63.7,61.0,30.00,NE,45,7.6,9.8,91,0.00,,,0.00,meteobridge,2013-04-19 12:58:00,
2013-04-19 09:03:00,63.9,61.2,29.99,East,90,4.5,7.6,91,0.00,,,0.00,meteobridge,2013-04-19 13:03:00,
2013-04-19 09:08:00,63.9,60.6,30.00,North,0,5.4,10.7,89,0.00,,,0.00,meteobridge,2013-04-19 13:08:00,
2013-04-19 09:13:00,63.5,60.3,30.00,East,90,8.3,8.3,89,0.00,,,0.00,meteobridge,2013-04-19 13:13:00,
2013-04-19 09:19:00,63.3,60.3,29.99,NE,45,7.6,7.6,90,0.00,,,0.00,meteobridge,2013-04-19 13:19:00,
2013-04-19 09:24:00,63.1,60.1,30.00,ESE,113,5.4,5.4,90,0.00,,,0.00,meteobridge,2013-04-19 13:24:00,
2013-04-19 09:29:00,63.0,59.9,29.99,NE,45,4.5,8.3,90,0.00,,,0.00,meteobridge,2013-04-19 13:29:00,
2013-04-19 09:34:00,63.0,59.9,30.00,NE,45,3.8,9.2,90,0.00,,,0.00,meteobridge,2013-04-19 13:34:00,
2013-04-19 09:39:00,62.8,59.7,29.99,SSE,158,6.0,6.0,90,0.00,,,0.00,meteobridge,2013-04-19 13:39:00,
2013-04-19 09:44:00,63.5,60.4,29.99,West,270,5.4,5.4,90,0.00,,,0.00,meteobridge,2013-04-19 13:44:00,
2013-04-19 09:49:00,63.7,60.4,30.00,NE,45,6.9,8.3,89,0.00,,,0.00,meteobridge,2013-04-19 13:49:00,
2013-04-19 09:55:00,62.6,58.6,29.99,SE,135,5.4,6.9,87,0.00,,,0.00,meteobridge,2013-04-19 13:55:00,
2013-04-19 10:00:00,62.2,59.2,30.00,NNE,23,4.5,6.9,90,0.00,,,0.00,meteobridge,2013-04-19 14:00:00,
2013-04-19 10:05:00,62.2,59.2,29.99,SE,135,7.6,11.4,90,0.00,,,0.00,meteobridge,2013-04-19 14:05:00,
2013-04-19 10:10:00,62.1,59.4,29.99,NE,45,6.9,6.9,91,0.00,,,0.00,meteobridge,2013-04-19 14:10:00,
2013-04-19 10:15:00,62.2,59.5,29.99,NW,315,3.8,9.8,91,0.00,,,0.00,meteobridge,2013-04-19 14:15:00,
2013-04-19 10:20:00,62.1,59.4,29.99,East,90,7.6,7.6,91,0.00,,,0.00,meteobridge,2013-04-19 14:20:00,
2013-04-19 10:26:00,61.9,59.2,29.99,NE,45,6.9,8.3,91,0.00,,,0.00,meteobridge,2013-04-19 14:26:00,
2013-04-19 10:31:00,62.1,59.7,29.99,North,0,6.9,10.7,92,0.00,,,0.00,meteobridge,2013-04-19 14:31:00,
2013-04-19 10:36:00,62.1,59.7,29.98,NE,45,6.9,6.9,92,0.00,,,0.00,meteobridge,2013-04-19 14:36:00,
2013-04-19 10:41:00,62.8,59.7,29.98,NNE,23,6.0,7.6,90,0.00,,,0.00,meteobridge,2013-04-19 14:41:00,
2013-04-19 10:46:00,63.1,59.9,29.98,NE,45,9.8,9.8,89,0.00,,,0.00,meteobridge,2013-04-19 14:46:00,
2013-04-19 10:51:00,63.9,60.6,29.98,NE,45,8.3,8.3,89,0.00,,,0.00,meteobridge,2013-04-19 14:51:00,
2013-04-19 10:57:00,64.9,61.3,29.98,NE,45,6.9,6.9,88,0.00,,,0.00,meteobridge,2013-04-19 14:57:00,
2013-04-19 11:02:00,64.6,60.6,29.98,NW,315,3.1,4.5,87,0.00,,,0.00,meteobridge,2013-04-19 15:02:00,
2013-04-19 11:07:00,65.3,61.3,29.97,NE,45,9.8,9.8,87,0.00,,,0.00,meteobridge,2013-04-19 15:07:00,
2013-04-19 11:12:00,65.3,61.0,29.97,NE,45,9.8,9.8,86,0.00,,,0.00,meteobridge,2013-04-19 15:12:00,
2013-04-19 11:17:00,65.3,61.0,29.97,NE,45,8.3,8.3,86,0.00,,,0.00,meteobridge,2013-04-19 15:17:00,
2013-04-19 11:22:00,65.3,61.0,29.96,East,90,6.9,6.9,86,0.00,,,0.00,meteobridge,2013-04-19 15:22:00,
2013-04-19 11:28:00,66.4,61.3,29.96,East,90,6.9,8.3,84,0.00,,,0.00,meteobridge,2013-04-19 15:28:00,
2013-04-19 11:33:00,67.1,61.3,29.96,NNE,23,6.0,6.9,82,0.00,,,0.00,meteobridge,2013-04-19 15:33:00,
2013-04-19 11:38:00,67.8,61.7,29.96,NE,45,7.6,7.6,81,0.00,,,0.00,meteobridge,2013-04-19 15:38:00,
2013-04-19 11:43:00,68.5,61.3,29.96,SE,135,4.5,6.0,78,0.00,,,0.00,meteobridge,2013-04-19 15:43:00,
2013-04-19 11:48:00,69.8,61.5,29.96,East,90,11.4,11.4,75,0.00,,,0.00,meteobridge,2013-04-19 15:48:00,
2013-04-19 11:53:00,70.0,61.0,29.96,WSW,248,5.4,9.2,73,0.00,,,0.00,meteobridge,2013-04-19 15:53:00,
2013-04-19 11:59:00,69.1,60.8,29.96,NE,45,5.4,5.4,75,0.00,,,0.00,meteobridge,2013-04-19 15:59:00,
2013-04-19 12:04:00,68.5,60.6,29.96,NE,45,9.2,9.2,76,0.00,,,0.00,meteobridge,2013-04-19 16:04:00,
2013-04-19 12:09:00,67.1,60.8,29.96,NE,45,6.9,9.2,80,0.00,,,0.00,meteobridge,2013-04-19 16:09:00,
2013-04-19 12:14:00,66.7,60.8,29.95,NE,45,6.9,8.3,81,0.00,,,0.00,meteobridge,2013-04-19 16:14:00,
2013-04-19 12:19:00,66.6,61.0,29.95,East,90,4.5,11.4,82,0.00,,,0.00,meteobridge,2013-04-19 16:19:00,
2013-04-19 12:24:00,66.0,60.6,29.95,East,90,4.5,4.5,83,0.00,,,0.00,meteobridge,2013-04-19 16:24:00,
2013-04-19 12:30:00,66.9,61.2,29.94,NE,45,4.5,6.0,82,0.00,,,0.00,meteobridge,2013-04-19 16:30:00,
2013-04-19 12:35:00,67.8,61.0,29.95,NE,45,10.7,10.7,79,0.00,,,0.00,meteobridge,2013-04-19 16:35:00,
2013-04-19 12:40:00,67.5,60.8,29.94,East,90,7.6,8.3,79,0.00,,,0.00,meteobridge,2013-04-19 16:40:00,
2013-04-19 12:45:00,66.4,60.1,29.94,NE,45,7.6,7.6,80,0.00,,,0.00,meteobridge,2013-04-19 16:45:00,
2013-04-19 12:50:00,66.2,60.3,29.94,NE,45,6.9,7.6,81,0.00,,,0.00,meteobridge,2013-04-19 16:50:00,
2013-04-19 12:55:00,66.0,60.1,29.94,ENE,68,3.8,7.6,81,0.00,,,0.00,meteobridge,2013-04-19 16:55:00,
2013-04-19 13:01:00,65.7,60.1,29.94,NE,45,10.7,10.7,82,0.00,,,0.00,meteobridge,2013-04-19 17:01:00,
2013-04-19 13:06:00,65.3,60.3,29.93,North,0,6.0,7.6,84,0.00,,,0.00,meteobridge,2013-04-19 17:06:00,
2013-04-19 13:11:00,65.1,60.4,29.94,SE,135,4.5,6.0,85,0.00,,,0.00,meteobridge,2013-04-19 17:11:00,
2013-04-19 13:16:00,64.9,60.6,29.93,North,0,4.5,7.6,86,0.00,,,0.00,meteobridge,2013-04-19 17:16:00,
2013-04-19 13:21:00,65.1,61.2,29.93,East,90,9.8,9.8,87,0.00,,,0.00,meteobridge,2013-04-19 17:21:00,
2013-04-19 13:26:00,65.3,61.7,29.93,SE,135,5.4,5.4,88,0.00,,,0.00,meteobridge,2013-04-19 17:26:00,
2013-04-19 13:31:00,66.2,61.9,29.93,East,90,6.0,6.0,86,0.00,,,0.00,meteobridge,2013-04-19 17:31:00,
2013-04-19 13:37:00,67.5,62.4,29.92,East,90,6.0,7.6,84,0.00,,,0.00,meteobridge,2013-04-19 17:37:00,
2013-04-19 13:42:00,69.1,61.9,29.92,NE,45,7.6,9.8,78,0.00,,,0.00,meteobridge,2013-04-19 17:42:00,
2013-04-19 13:47:00,69.8,61.9,29.92,South,180,6.9,7.6,76,0.00,,,0.00,meteobridge,2013-04-19 17:47:00,
2013-04-19 13:52:00,69.6,62.1,29.92,NE,45,3.1,8.3,77,0.00,,,0.00,meteobridge,2013-04-19 17:52:00,
2013-04-19 13:57:00,69.4,62.2,29.92,East,90,9.2,9.2,78,0.00,,,0.00,meteobridge,2013-04-19 17:57:00,
2013-04-19 14:02:00,69.6,62.4,29.91,NNE,23,7.6,8.3,78,0.00,,,0.00,meteobridge,2013-04-19 18:02:00,
2013-04-19 14:08:00,69.6,62.1,29.91,NE,45,6.0,7.6,77,0.00,,,0.00,meteobridge,2013-04-19 18:08:00,
2013-04-19 14:13:00,68.2,60.6,29.91,SW,225,9.8,9.8,77,0.00,,,0.00,meteobridge,2013-04-19 18:13:00,
2013-04-19 14:18:00,67.3,61.5,29.91,NE,45,6.0,6.0,82,0.00,,,0.00,meteobridge,2013-04-19 18:18:00,
2013-04-19 14:23:00,66.4,61.3,29.91,South,180,3.8,10.7,84,0.00,,,0.00,meteobridge,2013-04-19 18:23:00,
2013-04-19 14:28:00,65.8,61.2,29.91,East,90,3.8,6.0,85,0.00,,,0.00,meteobridge,2013-04-19 18:28:00,
2013-04-19 14:33:00,65.3,60.6,29.91,NNE,23,6.9,10.7,85,0.00,,,0.00,meteobridge,2013-04-19 18:33:00,
2013-04-19 14:39:00,64.2,59.9,29.90,East,90,10.7,10.7,86,0.00,,,0.00,meteobridge,2013-04-19 18:39:00,
2013-04-19 14:44:00,64.0,60.1,29.90,NE,45,9.2,9.2,87,0.00,,,0.00,meteobridge,2013-04-19 18:44:00,
2013-04-19 14:49:00,63.7,59.7,29.89,NE,45,6.9,6.9,87,0.00,,,0.00,meteobridge,2013-04-19 18:49:00,
2013-04-19 14:54:00,63.5,59.5,29.89,North,0,9.2,9.8,87,0.00,,,0.00,meteobridge,2013-04-19 18:54:00,
2013-04-19 14:59:00,64.0,59.7,29.89,East,90,10.7,10.7,86,0.00,,,0.00,meteobridge,2013-04-19 18:59:00,
2013-04-19 15:04:00,64.2,59.9,29.89,North,0,5.4,9.8,86,0.00,,,0.00,meteobridge,2013-04-19 19:04:00,
2013-04-19 15:10:00,66.4,61.7,29.88,East,90,10.7,12.1,85,0.00,,,0.00,meteobridge,2013-04-19 19:10:00,
2013-04-19 15:15:00,68.4,62.2,29.88,East,90,4.5,4.5,81,0.00,,,0.00,meteobridge,2013-04-19 19:15:00,
2013-04-19 15:20:00,68.7,60.8,29.88,East,90,4.5,9.2,76,0.00,,,0.00,meteobridge,2013-04-19 19:20:00,
2013-04-19 15:25:00,68.5,60.6,29.88,NE,45,9.2,9.2,76,0.00,,,0.00,meteobridge,2013-04-19 19:25:00,
2013-04-19 15:30:00,69.6,61.3,29.88,NE,45,6.0,9.2,75,0.00,,,0.00,meteobridge,2013-04-19 19:30:00,
2013-04-19 15:35:00,67.6,59.7,29.88,NE,45,6.9,12.1,76,0.00,,,0.00,meteobridge,2013-04-19 19:35:00,
2013-04-19 15:41:00,67.3,60.3,29.88,North,0,6.9,12.1,78,0.00,,,0.00,meteobridge,2013-04-19 19:41:00,
2013-04-19 15:46:00,67.6,61.0,29.88,ENE,68,6.0,6.0,79,0.00,,,0.00,meteobridge,2013-04-19 19:46:00,
2013-04-19 15:51:00,69.1,61.2,29.87,East,90,6.0,7.6,76,0.00,,,0.00,meteobridge,2013-04-19 19:51:00,
2013-04-19 15:56:00,69.3,61.0,29.87,NE,45,11.4,11.4,75,0.00,,,0.00,meteobridge,2013-04-19 19:56:00,
2013-04-19 16:01:00,69.6,61.0,29.87,SE,135,6.0,6.0,74,0.00,,,0.00,meteobridge,2013-04-19 20:01:00,
2013-04-19 16:06:00,70.0,60.6,29.86,NE,45,7.6,9.2,72,0.00,,,0.00,meteobridge,2013-04-19 20:06:00,
2013-04-19 16:12:00,69.4,60.4,29.86,NW,315,9.2,11.4,73,0.00,,,0.00,meteobridge,2013-04-19 20:12:00,
2013-04-19 16:17:00,69.4,60.8,29.85,NE,45,9.8,9.8,74,0.00,,,0.00,meteobridge,2013-04-19 20:17:00,
2013-04-19 16:22:00,68.5,60.3,29.85,SE,135,7.6,14.5,75,0.00,,,0.00,meteobridge,2013-04-19 20:22:00,
2013-04-19 16:27:00,68.7,60.8,29.85,NE,45,9.2,9.2,76,0.00,,,0.00,meteobridge,2013-04-19 20:27:00,
2013-04-19 16:32:00,69.4,61.5,29.85,NE,45,6.9,9.8,76,0.00,,,0.00,meteobridge,2013-04-19 20:32:00,
2013-04-19 16:37:00,68.5,60.6,29.85,NNE,23,6.9,7.6,76,0.00,,,0.00,meteobridge,2013-04-19 20:37:00,
2013-04-19 16:43:00,67.8,61.0,29.85,East,90,7.6,7.6,79,0.00,,,0.00,meteobridge,2013-04-19 20:43:00,
2013-04-19 16:48:00,67.6,61.0,29.84,NE,45,6.0,15.2,79,0.00,,,0.00,meteobridge,2013-04-19 20:48:00,
2013-04-19 16:53:00,67.1,60.8,29.84,East,90,10.7,14.5,80,0.00,,,0.00,meteobridge,2013-04-19 20:53:00,
2013-04-19 16:58:00,67.3,61.2,29.83,ENE,68,5.4,13.0,81,0.00,,,0.00,meteobridge,2013-04-19 20:58:00,
2013-04-19 17:03:00,67.5,60.8,29.84,SE,135,11.4,11.4,79,0.00,,,0.00,meteobridge,2013-04-19 21:03:00,
2013-04-19 17:08:00,66.2,60.3,29.83,East,90,9.8,9.8,81,0.00,,,0.00,meteobridge,2013-04-19 21:08:00,
2013-04-19 17:14:00,65.8,60.6,29.84,NE,45,6.0,9.8,83,0.00,,,0.00,meteobridge,2013-04-19 21:14:00,
2013-04-19 17:19:00,65.8,60.6,29.83,NE,45,11.4,11.4,83,0.00,,,0.00,meteobridge,2013-04-19 21:19:00,
2013-04-19 17:24:00,65.7,60.6,29.83,North,0,9.8,14.5,84,0.00,,,0.00,meteobridge,2013-04-19 21:24:00,
2013-04-19 17:29:00,66.0,61.3,29.83,North,0,9.8,9.8,85,0.00,,,0.00,meteobridge,2013-04-19 21:29:00,
2013-04-19 17:34:00,66.0,61.3,29.83,NE,45,9.2,13.6,85,0.00,,,0.00,meteobridge,2013-04-19 21:34:00,
2013-04-19 17:39:00,66.4,61.3,29.83,SE,135,8.3,11.4,84,0.00,,,0.00,meteobridge,2013-04-19 21:39:00,
2013-04-19 17:44:00,66.4,61.3,29.83,ENE,68,13.6,13.6,84,0.00,,,0.00,meteobridge,2013-04-19 21:44:00,
2013-04-19 17:50:00,66.0,61.3,29.83,North,0,9.2,9.2,85,0.00,,,0.00,meteobridge,2013-04-19 21:50:00,
2013-04-19 17:55:00,66.2,61.5,29.82,ENE,68,8.3,11.4,85,0.00,,,0.00,meteobridge,2013-04-19 21:55:00,
2013-04-19 18:00:00,66.0,61.7,29.82,East,90,6.0,21.3,86,0.00,,,0.00,meteobridge,2013-04-19 22:00:00,
2013-04-19 18:05:00,66.0,62.1,29.81,North,0,13.0,13.0,87,0.00,,,0.00,meteobridge,2013-04-19 22:05:00,
2013-04-19 18:10:00,66.2,61.9,29.81,NE,45,5.4,9.2,86,0.00,,,0.00,meteobridge,2013-04-19 22:10:00,
2013-04-19 18:15:00,66.2,61.9,29.81,NE,45,9.8,9.8,86,0.00,,,0.00,meteobridge,2013-04-19 22:15:00,
2013-04-19 18:21:00,66.2,61.9,29.81,East,90,13.6,13.6,86,0.00,,,0.00,meteobridge,2013-04-19 22:21:00,
2013-04-19 18:26:00,66.4,62.4,29.80,NE,45,9.2,13.0,87,0.00,,,0.00,meteobridge,2013-04-19 22:26:00,
2013-04-19 18:31:00,66.0,62.4,29.80,NE,45,12.1,13.0,88,0.00,,,0.00,meteobridge,2013-04-19 22:31:00,
2013-04-19 18:36:00,65.5,61.9,29.80,NE,45,6.9,11.4,88,0.00,,,0.00,meteobridge,2013-04-19 22:36:00,
2013-04-19 18:41:00,65.1,61.5,29.80,North,0,10.7,10.7,88,0.00,,,0.00,meteobridge,2013-04-19 22:41:00,
2013-04-19 18:46:00,64.8,61.5,29.80,North,0,13.0,13.0,89,0.00,,,0.00,meteobridge,2013-04-19 22:46:00,
2013-04-19 18:52:00,64.4,61.2,29.79,East,90,9.8,10.7,89,0.00,,,0.00,meteobridge,2013-04-19 22:52:00,
2013-04-19 18:57:00,64.8,61.7,29.79,NE,45,14.5,17.4,90,0.00,,,0.00,meteobridge,2013-04-19 22:57:00,
2013-04-19 19:02:00,64.8,61.7,29.79,ENE,68,11.4,19.7,90,0.00,,,0.00,meteobridge,2013-04-19 23:02:00,
2013-04-19 19:07:00,64.8,61.7,29.79,NE,45,14.5,16.8,90,0.00,,,0.00,meteobridge,2013-04-19 23:07:00,
2013-04-19 19:12:00,64.9,62.2,29.79,North,0,11.4,13.0,91,0.00,,,0.00,meteobridge,2013-04-19 23:12:00,
2013-04-19 19:17:00,64.9,62.2,29.79,SW,225,13.0,13.0,91,0.00,,,0.00,meteobridge,2013-04-19 23:17:00,
2013-04-19 19:23:00,64.8,62.1,29.80,NE,45,20.6,20.6,91,0.00,,,0.00,meteobridge,2013-04-19 23:23:00,
2013-04-19 19:28:00,64.8,62.1,29.79,SE,135,15.2,15.2,91,0.00,,,0.00,meteobridge,2013-04-19 23:28:00,
2013-04-19 19:33:00,64.4,61.7,29.79,NE,45,13.0,13.0,91,0.00,,,0.00,meteobridge,2013-04-19 23:33:00,
2013-04-19 19:38:00,64.0,61.3,29.79,NE,45,9.2,14.5,91,0.00,,,0.00,meteobridge,2013-04-19 23:38:00,
2013-04-19 19:43:00,63.7,60.6,29.80,NE,45,9.2,11.4,90,0.00,,,0.00,meteobridge,2013-04-19 23:43:00,
2013-04-19 19:48:00,63.5,60.8,29.80,NE,45,11.4,13.0,91,0.00,,,0.00,meteobridge,2013-04-19 23:48:00,
2013-04-19 19:54:00,63.1,60.1,29.80,East,90,14.5,14.5,90,0.00,,,0.00,meteobridge,2013-04-19 23:54:00,
2013-04-19 19:59:00,62.8,59.7,29.80,ESE,113,7.6,13.0,90,0.00,,,0.00,meteobridge,2013-04-19 23:59:00,
2013-04-19 20:04:00,62.8,60.1,29.80,North,0,18.3,18.3,91,0.00,,,0.00,meteobridge,2013-04-20 00:04:00,
2013-04-19 20:09:00,62.8,60.1,29.80,NW,315,9.2,12.1,91,0.00,,,0.00,meteobridge,2013-04-20 00:09:00,
2013-04-19 20:14:00,63.0,60.6,29.80,NE,45,17.4,17.4,92,0.00,,,0.00,meteobridge,2013-04-20 00:14:00,
2013-04-19 20:19:00,63.5,61.5,29.80,NE,45,12.1,13.6,93,0.00,,,0.00,meteobridge,2013-04-20 00:19:00,
2013-04-19 20:25:00,63.7,61.7,29.80,NE,45,9.8,9.8,93,0.00,,,0.00,meteobridge,2013-04-20 00:25:00,
2013-04-19 20:30:00,63.9,61.9,29.79,ENE,68,8.3,8.3,93,0.00,,,0.00,meteobridge,2013-04-20 00:30:00,
2013-04-19 20:35:00,63.9,61.9,29.79,NE,45,17.4,17.4,93,0.00,,,0.00,meteobridge,2013-04-20 00:35:00,
2013-04-19 20:40:00,64.0,62.1,29.79,SE,135,9.2,10.7,93,0.00,,,0.00,meteobridge,2013-04-20 00:40:00,
2013-04-19 20:45:00,64.0,62.1,29.79,NE,45,10.7,12.1,93,0.00,,,0.00,meteobridge,2013-04-20 00:45:00,
2013-04-19 20:50:00,64.0,62.1,29.79,East,90,10.7,11.4,93,0.00,,,0.00,meteobridge,2013-04-20 00:50:00,
2013-04-19 20:56:00,64.0,62.1,29.79,NE,45,10.7,10.7,93,0.00,,,0.00,meteobridge,2013-04-20 00:56:00,
2013-04-19 21:01:00,64.2,62.2,29.80,NE,45,18.3,18.3,93,0.00,,,0.00,meteobridge,2013-04-20 01:01:00,
2013-04-19 21:06:00,64.2,62.2,29.79,North,0,9.2,13.6,93,0.00,,,0.00,meteobridge,2013-04-20 01:06:00,
2013-04-19 21:11:00,64.2,61.9,29.79,NE,45,15.9,15.9,92,0.00,,,0.00,meteobridge,2013-04-20 01:11:00,
2013-04-19 21:16:00,64.6,62.8,29.78,NE,45,13.0,15.2,94,0.00,,,0.00,meteobridge,2013-04-20 01:16:00,
2013-04-19 21:21:00,64.9,62.8,29.79,NE,45,11.4,14.5,93,0.00,,,0.00,meteobridge,2013-04-20 01:21:00,
2013-04-19 21:26:00,65.1,63.3,29.79,NE,45,12.1,13.0,94,0.00,,,0.00,meteobridge,2013-04-20 01:26:00,
2013-04-19 21:32:00,65.5,63.7,29.78,NE,45,12.1,15.2,94,0.00,,,0.00,meteobridge,2013-04-20 01:32:00,
2013-04-19 21:37:00,65.7,63.9,29.78,NE,45,9.2,17.4,94,0.00,,,0.00,meteobridge,2013-04-20 01:37:00,
2013-04-19 21:42:00,65.7,63.5,29.78,North,0,7.6,16.8,93,0.00,,,0.00,meteobridge,2013-04-20 01:42:00,
2013-04-19 21:47:00,65.5,63.3,29.78,North,0,11.4,11.4,93,0.00,,,0.00,meteobridge,2013-04-20 01:47:00,
2013-04-19 21:52:00,65.7,63.5,29.77,ENE,68,13.0,15.2,93,0.00,,,0.00,meteobridge,2013-04-20 01:52:00,
2013-04-19 21:57:00,65.8,63.7,29.78,NE,45,15.9,15.9,93,0.00,,,0.00,meteobridge,2013-04-20 01:57:00,
2013-04-19 22:03:00,65.5,63.3,29.78,NE,45,19.7,19.7,93,0.00,,,0.00,meteobridge,2013-04-20 02:03:00,
2013-04-19 22:08:00,65.5,63.7,29.77,SE,135,13.0,15.2,94,0.00,,,0.00,meteobridge,2013-04-20 02:08:00,
2013-04-19 22:13:00,65.7,63.9,29.77,NE,45,14.5,15.9,94,0.00,,,0.00,meteobridge,2013-04-20 02:13:00,
2013-04-19 22:18:00,65.5,63.7,29.77,East,90,11.4,11.4,94,0.00,,,0.00,meteobridge,2013-04-20 02:18:00,
2013-04-19 22:23:00,64.9,63.1,29.77,ENE,68,17.4,19.0,94,0.00,,,0.00,meteobridge,2013-04-20 02:23:00,
2013-04-19 22:28:00,64.4,63.0,29.77,North,0,14.5,15.2,95,0.00,,,0.00,meteobridge,2013-04-20 02:28:00,
2013-04-19 22:34:00,64.2,62.4,29.77,NW,315,12.1,20.6,94,0.00,,,0.00,meteobridge,2013-04-20 02:34:00,
2013-04-19 22:39:00,64.2,62.4,29.76,SE,135,21.3,21.3,94,0.00,,,0.00,meteobridge,2013-04-20 02:39:00,
2013-04-19 22:44:00,64.2,62.4,29.76,ENE,68,10.7,14.5,94,0.00,,,0.00,meteobridge,2013-04-20 02:44:00,
2013-04-19 22:49:00,64.0,62.6,29.77,SE,135,9.8,13.6,95,0.00,,,0.00,meteobridge,2013-04-20 02:49:00,
2013-04-19 22:54:00,64.0,62.6,29.76,East,90,13.6,18.3,95,0.00,,,0.00,meteobridge,2013-04-20 02:54:00,
2013-04-19 22:59:00,64.0,62.6,29.75,East,90,18.3,18.3,95,0.00,,,0.00,meteobridge,2013-04-20 02:59:00,
2013-04-19 23:05:00,63.9,62.4,29.75,ENE,68,11.4,14.5,95,0.00,,,0.00,meteobridge,2013-04-20 03:05:00,
2013-04-19 23:10:00,63.9,62.8,29.75,NE,45,11.4,15.2,96,0.00,,,0.00,meteobridge,2013-04-20 03:10:00,
2013-04-19 23:15:00,63.7,62.6,29.75,NE,45,13.0,13.0,96,0.00,,,0.00,meteobridge,2013-04-20 03:15:00,
2013-04-19 23:20:00,63.9,62.8,29.75,NE,45,15.9,17.4,96,0.00,,,0.00,meteobridge,2013-04-20 03:20:00,
2013-04-19 23:25:00,64.0,63.0,29.75,NE,45,18.3,18.3,96,0.00,,,0.00,meteobridge,2013-04-20 03:25:00,
2013-04-19 23:30:00,64.2,63.1,29.75,East,90,9.2,13.6,96,0.00,,,0.00,meteobridge,2013-04-20 03:30:00,
2013-04-19 23:36:00,64.4,63.5,29.74,NNE,23,10.7,22.8,97,0.00,,,0.00,meteobridge,2013-04-20 03:36:00,
2013-04-19 23:41:00,64.9,64.0,29.75,East,90,16.8,16.8,97,0.00,,,0.00,meteobridge,2013-04-20 03:41:00,
2013-04-19 23:46:00,64.9,63.9,29.75,East,90,14.5,14.5,96,0.00,,,0.00,meteobridge,2013-04-20 03:46:00,
2013-04-19 23:51:00,65.1,64.0,29.74,North,0,15.2,15.2,96,0.00,,,0.00,meteobridge,2013-04-20 03:51:00,
2013-04-19 23:56:00,65.3,64.0,29.74,North,0,13.0,19.0,96,0.00,,,0.00,meteobridge,2013-04-20 03:56:00,